Montclair, California
Current Conditions -  °F | °C
As of 10:53 AM on Friday 28 Nov 2014 (Local Time) from KONT Reporting Station
Few Clouds Few Clouds  
Wind Chill: 74°   Ceiling: Unl
Heat Index: 74°   Visibility: 10mi
Dew Point: 21°   Wind: 0mph
Humidity: 14%   Direction: NA
Pressure: 30"   Gusts: NA
Location:  34.07°N, 117.69°W
Report Text: KONT 281853Z 00000KT 10SM FEW080 23/M06 A3000 RMK AO2 SLP148 FU FEW080 T02331061
Loading
Personal Weather Stations






























Interactive Weather Map New forecast layout! Learn more

10-Day Weather Forecast

Advertisements
Track Severe Weather on mobile